createdAt,value
2023-01-30T00:02:01.296Z,-5.30
2023-01-30T00:04:59.082Z,-5.20
2023-01-30T00:07:56.849Z,-5.10
2023-01-30T00:10:54.795Z,-5.20
2023-01-30T00:13:53.127Z,-5.10
2023-01-30T00:16:50.908Z,-5.00
2023-01-30T00:19:48.555Z,-5.10
2023-01-30T00:22:59.208Z,-5.10
2023-01-30T00:25:58.363Z,-5.00
2023-01-30T00:28:56.158Z,-5.00
2023-01-30T00:31:53.877Z,-4.90
2023-01-30T00:34:51.637Z,-4.80
2023-01-30T00:37:49.313Z,-4.80
2023-01-30T00:40:48.315Z,-4.70
2023-01-30T00:44:01.397Z,-4.60
2023-01-30T00:47:06.278Z,-4.50
2023-01-30T00:50:04.233Z,-4.40
2023-01-30T00:53:01.994Z,-4.30
2023-01-30T00:55:59.746Z,-4.20
2023-01-30T00:58:57.511Z,-4.10
2023-01-30T01:01:55.244Z,-4.00
2023-01-30T01:04:53.131Z,-3.90
2023-01-30T01:07:50.818Z,-3.90
2023-01-30T01:10:48.623Z,-3.80
2023-01-30T01:13:46.334Z,-3.80
2023-01-30T01:16:44.091Z,-3.70
2023-01-30T01:19:41.873Z,-3.60
2023-01-30T01:22:40.112Z,-3.50
2023-01-30T01:25:38.229Z,-3.60
2023-01-30T01:28:36.076Z,-3.60
2023-01-30T01:31:33.850Z,-3.50
2023-01-30T01:34:31.701Z,-3.60
2023-01-30T01:37:29.418Z,-3.70
2023-01-30T01:40:42.481Z,-3.80
2023-01-30T01:43:59.717Z,-3.90
2023-01-30T01:46:59.960Z,-4.00
2023-01-30T01:49:57.661Z,-4.00
2023-01-30T01:52:58.438Z,-4.10
2023-01-30T01:56:00.407Z,-4.20
2023-01-30T01:59:12.861Z,-4.30
2023-01-30T02:02:13.437Z,-4.20
2023-01-30T02:05:13.290Z,-4.30
2023-01-30T02:08:16.513Z,-4.30
2023-01-30T02:11:22.810Z,-4.30
2023-01-30T02:14:22.362Z,-4.40
2023-01-30T02:17:21.091Z,-4.40
2023-01-30T02:20:43.830Z,-4.60
2023-01-30T02:23:56.800Z,-4.70
2023-01-30T02:27:29.766Z,-4.80
2023-01-30T02:30:58.246Z,-4.70
2023-01-30T02:34:21.655Z,-4.70
2023-01-30T02:37:50.099Z,-4.70
2023-01-30T02:41:18.285Z,-4.60
2023-01-30T02:44:34.491Z,-4.60
2023-01-30T02:47:45.712Z,-4.60
2023-01-30T02:50:49.871Z,-4.60
2023-01-30T02:53:49.086Z,-4.70
2023-01-30T02:56:50.548Z,-4.60
2023-01-30T02:59:51.986Z,-4.60
2023-01-30T03:03:10.355Z,-4.50
2023-01-30T03:06:31.641Z,-4.50
2023-01-30T03:09:43.079Z,-4.40
2023-01-30T03:13:07.643Z,-4.40
2023-01-30T03:16:13.523Z,-4.20
2023-01-30T03:19:13.316Z,-4.10
2023-01-30T03:22:11.108Z,-4.00
2023-01-30T03:25:09.698Z,-3.90
2023-01-30T03:28:08.917Z,-3.80
2023-01-30T03:31:07.138Z,-3.70
2023-01-30T03:34:05.074Z,-3.60
2023-01-30T03:37:03.342Z,-3.40
2023-01-30T03:40:03.367Z,-3.30
2023-01-30T03:43:01.753Z,-3.20
2023-01-30T03:45:59.711Z,-3.00
2023-01-30T03:48:57.399Z,-2.80
2023-01-30T03:51:55.203Z,-2.60
2023-01-30T03:54:53.048Z,-2.50
2023-01-30T03:57:54.924Z,-2.40
2023-01-30T04:00:54.866Z,-2.30
2023-01-30T04:03:53.955Z,-2.20
2023-01-30T04:06:51.587Z,-2.10
2023-01-30T04:09:49.298Z,-2.10
2023-01-30T04:12:47.733Z,-2.00
2023-01-30T04:15:45.481Z,-1.90
2023-01-30T04:18:43.456Z,-1.70
2023-01-30T04:21:41.291Z,-1.70
2023-01-30T04:24:39.116Z,-1.50
2023-01-30T04:27:36.994Z,-1.40
2023-01-30T04:30:34.722Z,-1.20
2023-01-30T04:33:35.891Z,-1.20
2023-01-30T04:36:33.660Z,-1.20
2023-01-30T04:39:31.416Z,-1.10
2023-01-30T04:42:29.070Z,-1.10
2023-01-30T04:45:28.303Z,-1.10
2023-01-30T04:48:26.838Z,-1.00
2023-01-30T04:51:24.714Z,-0.90
2023-01-30T04:54:22.511Z,-0.90
2023-01-30T04:57:20.282Z,-0.80
2023-01-30T05:00:18.672Z,-0.80
2023-01-30T05:03:16.980Z,-0.70
2023-01-30T05:06:14.630Z,-0.70
2023-01-30T05:09:12.483Z,-0.60
2023-01-30T05:12:10.316Z,-0.70
2023-01-30T05:15:08.671Z,-0.60
2023-01-30T05:18:06.388Z,-0.60
2023-01-30T05:21:07.872Z,-0.60
2023-01-30T05:24:05.981Z,-0.90
2023-01-30T05:27:04.427Z,-0.90
2023-01-30T05:30:02.266Z,-0.80
2023-01-30T05:33:00.225Z,-0.70
2023-01-30T05:35:58.704Z,-0.50
2023-01-30T05:38:57.091Z,-0.40
2023-01-30T05:41:54.782Z,-0.30
2023-01-30T05:44:52.593Z,-0.20
2023-01-30T05:47:56.277Z,-0.10
2023-01-30T05:50:55.758Z,0.00
2023-01-30T05:53:53.776Z,0.00
2023-01-30T05:56:51.782Z,0.20
2023-01-30T05:59:49.551Z,0.20
2023-01-30T06:02:47.617Z,0.20
2023-01-30T06:05:45.880Z,0.20
2023-01-30T06:08:43.671Z,0.20
2023-01-30T06:11:41.364Z,0.30
2023-01-30T06:14:39.357Z,0.40
2023-01-30T06:17:37.181Z,0.60
2023-01-30T06:20:34.995Z,0.80
2023-01-30T06:23:32.738Z,1.00
2023-01-30T06:26:30.644Z,1.10
2023-01-30T06:29:28.442Z,1.10
2023-01-30T06:32:26.184Z,1.20
2023-01-30T06:35:23.899Z,1.10
2023-01-30T06:38:22.900Z,1.20
2023-01-30T06:41:20.819Z,1.30
2023-01-30T06:44:19.349Z,1.30
2023-01-30T06:47:17.213Z,1.20
2023-01-30T06:50:15.935Z,1.20
2023-01-30T06:53:13.798Z,1.20
2023-01-30T06:56:11.606Z,1.10
2023-01-30T06:59:09.342Z,1.20
2023-01-30T07:02:07.365Z,1.10
2023-01-30T07:05:08.434Z,1.10
2023-01-30T07:08:06.419Z,1.10
2023-01-30T07:11:05.826Z,1.30
2023-01-30T07:14:05.673Z,1.50
2023-01-30T07:17:04.060Z,1.60
2023-01-30T07:20:01.932Z,1.50
2023-01-30T07:22:59.778Z,1.60
2023-01-30T07:25:57.587Z,1.60
2023-01-30T07:28:55.405Z,1.60
2023-01-30T07:31:53.702Z,1.70
2023-01-30T07:34:51.486Z,1.80
2023-01-30T07:37:50.628Z,1.90
2023-01-30T07:40:48.300Z,2.00
2023-01-30T07:43:46.020Z,2.00
2023-01-30T07:46:43.730Z,2.10
2023-01-30T07:49:41.845Z,2.10
2023-01-30T07:52:40.077Z,2.10
2023-01-30T07:55:38.720Z,1.90
2023-01-30T07:58:37.305Z,1.90
2023-01-30T08:01:35.303Z,2.00
2023-01-30T08:04:33.407Z,2.10
2023-01-30T08:07:31.297Z,2.00
2023-01-30T08:10:29.005Z,1.80
2023-01-30T08:13:26.794Z,1.90
2023-01-30T08:16:24.509Z,2.00
2023-01-30T08:19:22.278Z,1.90
2023-01-30T08:22:20.084Z,2.10
2023-01-30T08:25:17.937Z,1.90
2023-01-30T08:28:15.621Z,2.00
2023-01-30T08:31:15.256Z,2.00
2023-01-30T08:34:13.203Z,2.10
2023-01-30T08:37:11.024Z,2.20
2023-01-30T08:40:10.549Z,2.20
2023-01-30T08:43:08.599Z,2.30
2023-01-30T08:46:06.469Z,2.10
2023-01-30T08:49:04.449Z,2.10
2023-01-30T08:52:02.335Z,2.20
2023-01-30T08:55:00.313Z,2.20
2023-01-30T08:57:58.061Z,2.20
2023-01-30T09:00:55.987Z,2.40
2023-01-30T09:03:53.698Z,2.60
2023-01-30T09:06:51.806Z,2.50
2023-01-30T09:09:49.505Z,2.50
2023-01-30T09:12:47.348Z,2.40
2023-01-30T09:15:46.260Z,2.50
2023-01-30T09:18:45.091Z,2.60
2023-01-30T09:21:42.780Z,2.50
2023-01-30T09:24:40.634Z,2.50
2023-01-30T09:27:38.353Z,2.40
2023-01-30T09:30:36.216Z,2.30
2023-01-30T09:33:34.117Z,2.10
2023-01-30T09:36:32.784Z,2.10
2023-01-30T09:39:30.810Z,1.90
2023-01-30T09:42:52.030Z,2.00
2023-01-30T09:46:05.968Z,2.30
2023-01-30T09:49:34.931Z,2.50
2023-01-30T09:52:51.591Z,2.50
2023-01-30T09:55:49.694Z,2.50
2023-01-30T09:58:58.879Z,2.30
2023-01-30T10:02:22.435Z,2.40
2023-01-30T10:05:20.573Z,2.30
2023-01-30T10:08:35.586Z,2.30
2023-01-30T10:11:55.886Z,2.20
2023-01-30T10:15:15.416Z,2.20
2023-01-30T10:18:37.417Z,2.10
2023-01-30T10:21:48.282Z,2.00
2023-01-30T10:25:03.707Z,1.80
2023-01-30T10:28:20.644Z,1.80
2023-01-30T10:31:23.575Z,1.40
2023-01-30T10:34:34.883Z,1.40
2023-01-30T10:37:50.157Z,1.40
2023-01-30T10:40:58.859Z,1.20
2023-01-30T10:44:13.995Z,1.30
2023-01-30T10:47:47.543Z,1.20
2023-01-30T10:51:12.220Z,1.20
2023-01-30T10:54:18.614Z,1.20
2023-01-30T10:57:42.160Z,1.10
2023-01-30T11:00:44.286Z,1.00
2023-01-30T11:03:50.836Z,0.90
2023-01-30T11:06:49.678Z,0.90
2023-01-30T11:09:49.714Z,0.90
2023-01-30T11:12:47.749Z,0.70
2023-01-30T11:15:48.816Z,0.60
2023-01-30T11:19:18.699Z,0.60
2023-01-30T11:22:15.277Z,0.40
2023-01-30T11:25:18.221Z,0.10
2023-01-30T11:28:20.031Z,-0.10
2023-01-30T11:31:39.996Z,-0.10
2023-01-30T11:34:39.307Z,-0.20
2023-01-30T11:37:40.233Z,-0.20
2023-01-30T11:40:41.437Z,-0.30
2023-01-30T11:43:40.677Z,-0.40
2023-01-30T11:46:41.523Z,-0.50
2023-01-30T11:49:45.407Z,-0.60
2023-01-30T11:52:46.289Z,-0.60
2023-01-30T11:56:00.349Z,-0.70
2023-01-30T11:59:04.218Z,-0.80
2023-01-30T12:02:17.184Z,-0.80
2023-01-30T12:05:30.129Z,-0.90
2023-01-30T12:08:45.007Z,-0.80
2023-01-30T12:11:45.599Z,-0.90
2023-01-30T12:14:49.920Z,-1.00
2023-01-30T12:18:13.474Z,-1.10
2023-01-30T12:21:44.825Z,-1.10
2023-01-30T12:24:49.526Z,-1.10
2023-01-30T12:28:04.412Z,-1.00
2023-01-30T12:31:12.536Z,-1.10
2023-01-30T12:34:11.236Z,-1.20
2023-01-30T12:37:36.184Z,-1.20
2023-01-30T12:40:51.902Z,-1.30
2023-01-30T12:44:20.352Z,-1.30
2023-01-30T12:47:44.188Z,-1.40
2023-01-30T12:51:09.374Z,-1.40
2023-01-30T12:54:29.412Z,-1.50
2023-01-30T12:57:47.545Z,-1.60
2023-01-30T13:01:07.139Z,-1.80
2023-01-30T13:04:25.436Z,-1.80
2023-01-30T13:07:39.199Z,-1.70
2023-01-30T13:11:01.589Z,-1.70
2023-01-30T13:14:11.562Z,-1.70
2023-01-30T13:17:31.241Z,-1.80
2023-01-30T13:20:58.118Z,-1.60
2023-01-30T13:24:15.912Z,-1.60
2023-01-30T13:27:20.636Z,-1.60
2023-01-30T13:30:19.214Z,-1.80
2023-01-30T13:33:37.312Z,-1.70
2023-01-30T13:36:50.478Z,-1.70
2023-01-30T13:40:00.770Z,-1.70
2023-01-30T13:43:05.111Z,-1.70
2023-01-30T13:46:08.708Z,-1.70
2023-01-30T13:49:13.968Z,-1.80
2023-01-30T13:52:41.785Z,-1.70
2023-01-30T13:55:49.343Z,-1.60
2023-01-30T13:58:58.195Z,-1.60
2023-01-30T14:02:18.143Z,-1.60
2023-01-30T14:05:51.234Z,-1.50
2023-01-30T14:08:55.388Z,-1.50
2023-01-30T14:12:02.672Z,-1.50
2023-01-30T14:15:04.602Z,-1.50
2023-01-30T14:18:07.891Z,-1.60
2023-01-30T14:21:23.017Z,-1.60
2023-01-30T14:24:28.192Z,-1.60
2023-01-30T14:27:32.462Z,-1.60
2023-01-30T14:30:39.082Z,-1.50
2023-01-30T14:33:50.082Z,-1.50
2023-01-30T14:36:49.014Z,-1.40
2023-01-30T14:39:54.011Z,-1.40
2023-01-30T14:43:26.872Z,-1.40
2023-01-30T14:46:42.105Z,-1.50
2023-01-30T14:49:53.377Z,-1.60
2023-01-30T14:52:57.341Z,-1.60
2023-01-30T14:56:04.904Z,-1.50
2023-01-30T14:59:08.107Z,-1.50
2023-01-30T15:02:28.931Z,-1.50
2023-01-30T15:05:34.453Z,-1.40
2023-01-30T15:08:34.341Z,-1.50
2023-01-30T15:11:34.586Z,-1.40
2023-01-30T15:14:44.528Z,-1.40
2023-01-30T15:18:08.574Z,-1.40
2023-01-30T15:21:37.990Z,-1.40
2023-01-30T15:25:01.570Z,-1.40
2023-01-30T15:28:12.880Z,-1.50
2023-01-30T15:31:16.156Z,-1.50
2023-01-30T15:34:22.129Z,-1.60
2023-01-30T15:37:37.967Z,-1.60
2023-01-30T15:40:36.884Z,-1.70
2023-01-30T15:43:54.183Z,-1.70
2023-01-30T15:47:09.505Z,-1.70
2023-01-30T15:50:10.400Z,-1.70
2023-01-30T15:53:15.617Z,-1.70
2023-01-30T15:56:24.417Z,-1.80
2023-01-30T15:59:30.037Z,-1.90
2023-01-30T16:02:33.763Z,-1.80
2023-01-30T16:05:31.996Z,-1.90
2023-01-30T16:08:31.905Z,-1.90
2023-01-30T16:11:45.087Z,-2.00
2023-01-30T16:14:42.887Z,-2.10
2023-01-30T16:17:41.492Z,-2.00
2023-01-30T16:21:02.021Z,-2.00
2023-01-30T16:24:25.410Z,-1.90
2023-01-30T16:27:32.768Z,-2.00
2023-01-30T16:30:31.068Z,-2.10
2023-01-30T16:33:36.516Z,-2.10
2023-01-30T16:36:41.342Z,-2.20
2023-01-30T16:39:41.335Z,-2.20
2023-01-30T16:42:42.019Z,-2.30
2023-01-30T16:46:19.754Z,-2.30
2023-01-30T16:49:32.946Z,-2.30
2023-01-30T16:52:47.001Z,-2.40
2023-01-30T16:56:11.557Z,-2.40
2023-01-30T16:59:20.603Z,-2.50
2023-01-30T17:02:35.423Z,-2.40
2023-01-30T17:05:41.903Z,-2.40
2023-01-30T17:09:04.169Z,-2.40
2023-01-30T17:12:22.995Z,-2.50
2023-01-30T17:15:34.203Z,-2.60
2023-01-30T17:18:33.314Z,-2.50
2023-01-30T17:21:46.345Z,-2.50
2023-01-30T17:24:48.366Z,-2.50
2023-01-30T17:27:47.148Z,-2.50
2023-01-30T17:30:46.739Z,-2.60
2023-01-30T17:33:45.102Z,-2.60
2023-01-30T17:36:44.480Z,-2.70
2023-01-30T17:39:43.477Z,-2.60
2023-01-30T17:42:41.293Z,-2.50
2023-01-30T17:45:40.023Z,-2.50
2023-01-30T17:48:37.888Z,-2.50
2023-01-30T17:51:41.066Z,-2.40
2023-01-30T17:54:39.679Z,-2.30
2023-01-30T17:57:37.808Z,-2.30
2023-01-30T18:00:35.696Z,-2.20
2023-01-30T18:03:34.481Z,-2.10
2023-01-30T18:06:33.952Z,-2.10
2023-01-30T18:09:32.381Z,-2.00
2023-01-30T18:12:30.103Z,-1.90
2023-01-30T18:15:30.194Z,-1.80
2023-01-30T18:18:31.272Z,-1.80
2023-01-30T18:21:29.334Z,-1.70
2023-01-30T18:24:28.650Z,-1.60
2023-01-30T18:27:26.515Z,-1.50
2023-01-30T18:30:25.466Z,-1.50
2023-01-30T18:33:23.464Z,-1.50
2023-01-30T18:36:22.162Z,-1.50
2023-01-30T18:39:20.028Z,-1.60
2023-01-30T18:42:17.968Z,-1.60
2023-01-30T18:45:16.139Z,-1.60
2023-01-30T18:48:14.474Z,-1.60
2023-01-30T18:51:15.913Z,-1.70
2023-01-30T18:54:14.246Z,-1.70
2023-01-30T18:57:12.163Z,-1.80
2023-01-30T19:00:11.043Z,-1.90
2023-01-30T19:03:09.618Z,-1.70
2023-01-30T19:06:13.734Z,-1.70
2023-01-30T19:09:16.549Z,-1.70
2023-01-30T19:12:29.972Z,-1.80
2023-01-30T19:15:27.938Z,-1.80
2023-01-30T19:18:29.262Z,-1.80
2023-01-30T19:21:28.210Z,-1.80
2023-01-30T19:24:26.548Z,-1.90
2023-01-30T19:27:24.633Z,-1.90
2023-01-30T19:30:23.199Z,-1.90
2023-01-30T19:36:44.167Z,-2.00
2023-01-30T19:54:22.937Z,-2.30
2023-01-30T19:57:22.474Z,-2.40
2023-01-30T20:00:22.482Z,-2.50
2023-01-30T20:03:20.218Z,-2.60
2023-01-30T20:06:24.512Z,-2.80
2023-01-30T20:09:22.223Z,-2.90
2023-01-30T20:12:20.164Z,-3.00
2023-01-30T20:15:19.237Z,-3.10
2023-01-30T20:18:17.031Z,-3.00
2023-01-30T20:21:18.082Z,-3.10
2023-01-30T20:24:17.648Z,-3.00
2023-01-30T20:27:15.608Z,-3.10
2023-01-30T20:30:15.384Z,-3.20
2023-01-30T20:33:13.873Z,-3.20
2023-01-30T20:36:14.436Z,-3.30
2023-01-30T20:39:12.827Z,-3.30
2023-01-30T20:42:10.673Z,-3.30
2023-01-30T20:45:09.207Z,-3.20
2023-01-30T20:48:07.258Z,-3.00
2023-01-30T20:51:09.386Z,-2.80
2023-01-30T20:54:09.054Z,-2.70
2023-01-30T20:57:06.839Z,-2.90
2023-01-30T21:00:06.016Z,-2.90
2023-01-30T21:03:04.188Z,-3.00
2023-01-30T21:06:03.147Z,-3.10
2023-01-30T21:09:01.416Z,-3.10
2023-01-30T21:11:59.235Z,-3.00
2023-01-30T21:14:56.908Z,-3.10
2023-01-30T21:17:54.744Z,-3.10
2023-01-30T21:20:52.417Z,-3.10
2023-01-30T21:23:51.911Z,-3.10
2023-01-30T21:26:50.146Z,-3.20
2023-01-30T21:29:48.538Z,-3.20
2023-01-30T21:32:46.507Z,-3.20
2023-01-30T21:35:44.732Z,-3.20
2023-01-30T21:39:00.300Z,-3.20
2023-01-30T21:42:13.690Z,-3.20
2023-01-30T21:45:12.501Z,-3.20
2023-01-30T21:48:11.001Z,-3.20
2023-01-30T21:51:14.546Z,-3.30
2023-01-30T21:54:14.120Z,-3.40
2023-01-30T21:57:12.181Z,-3.40
2023-01-30T22:00:10.748Z,-3.30
2023-01-30T22:03:08.443Z,-3.30
2023-01-30T22:06:10.553Z,-3.20
2023-01-30T22:09:09.008Z,-3.20
2023-01-30T22:12:06.893Z,-3.20
2023-01-30T22:15:04.830Z,-3.10
2023-01-30T22:18:04.252Z,-3.10
2023-01-30T22:21:05.138Z,-3.20
2023-01-30T22:24:05.808Z,-3.10
2023-01-30T22:27:05.735Z,-3.00
2023-01-30T22:30:04.649Z,-2.80
2023-01-30T22:33:06.528Z,-2.80
2023-01-30T22:36:07.201Z,-2.70
2023-01-30T22:39:05.942Z,-2.80
2023-01-30T22:42:04.748Z,-2.80
2023-01-30T22:45:02.622Z,-2.80
2023-01-30T22:48:02.155Z,-2.80
2023-01-30T22:51:05.384Z,-2.80
2023-01-30T22:54:07.020Z,-2.70
2023-01-30T22:57:04.725Z,-2.70
2023-01-30T23:00:02.932Z,-2.60
2023-01-30T23:03:01.363Z,-2.60
2023-01-30T23:06:01.633Z,-2.50
2023-01-30T23:09:02.359Z,-2.40
2023-01-30T23:12:15.450Z,-2.50
2023-01-30T23:15:12.866Z,-2.40
2023-01-30T23:18:26.647Z,-2.30
2023-01-30T23:21:27.553Z,-2.20
2023-01-30T23:24:25.343Z,-2.10
2023-01-30T23:27:23.111Z,-2.10
2023-01-30T23:30:20.945Z,-2.00
2023-01-30T23:33:18.604Z,-1.90
2023-01-30T23:36:16.539Z,-1.80
2023-01-30T23:39:15.114Z,-1.80
2023-01-30T23:42:12.909Z,-1.90
2023-01-30T23:45:11.096Z,-1.80
2023-01-30T23:48:09.835Z,-1.80
2023-01-30T23:51:08.229Z,-1.80
2023-01-30T23:54:06.823Z,-1.70
2023-01-30T23:57:04.545Z,-1.70
